Time;durP1;ratioP1;P1;durP2;ratioP2;P2;SDS_P1;SDS_P2;PMS_P1;PMS_P2;Temp;Humidity;BMP_temperature;BMP_pressure;BME280_temperature;BME280_humidity;BME280_pressure;Samples;Min_cycle;Max_cycle;Signal;HPM_P1;HPM_P2
2022/05/17 00:00:50;;;;;;;5.70;2.30;;;;;;;15.82;50.63;94180.31;5065372;28;20226;-82
2022/05/17 00:03:15;;;;;;;6.38;1.98;;;;;;;15.83;50.27;94184.59;5065981;28;20270;-82
2022/05/17 00:05:42;;;;;;;4.00;1.67;;;;;;;15.84;50.66;94174.63;5065846;28;20083;-82
2022/05/17 00:08:08;;;;;;;5.88;1.92;;;;;;;15.82;51.04;94174.94;5065735;28;20024;-82
2022/05/17 00:10:33;;;;;;;5.45;2.10;;;;;;;15.84;51.06;94175.38;5065682;28;20045;-82
2022/05/17 00:12:59;;;;;;;7.22;2.17;;;;;;;15.82;50.91;94172.25;5065765;28;20031;-81
2022/05/17 00:15:25;;;;;;;11.52;2.60;;;;;;;15.81;50.97;94177.97;5065454;28;20147;-82
2022/05/17 00:17:52;;;;;;;4.05;1.83;;;;;;;15.77;51.04;94177.88;5048014;28;20028;-82
2022/05/17 00:20:18;;;;;;;6.30;2.10;;;;;;;15.79;51.16;94175.63;5048207;28;20017;-82
2022/05/17 00:22:43;;;;;;;8.45;2.65;;;;;;;15.77;51.05;94172.50;5065653;28;20021;-82
2022/05/17 00:25:11;;;;;;;3.92;2.25;;;;;;;15.73;51.17;94174.28;5065675;28;20036;-82
2022/05/17 00:27:37;;;;;;;4.97;3.15;;;;;;;15.69;50.60;94170.66;5065481;28;20051;-82
2022/05/17 00:30:05;;;;;;;4.88;2.38;;;;;;;15.70;50.42;94177.63;5065551;28;20029;-81
2022/05/17 00:32:30;;;;;;;6.57;2.42;;;;;;;15.70;51.24;94174.94;5065450;28;20024;-82
2022/05/17 00:34:56;;;;;;;4.07;1.67;;;;;;;15.70;50.20;94176.84;5065160;28;20246;-81
2022/05/17 00:37:21;;;;;;;3.63;1.95;;;;;;;15.68;50.78;94174.47;5065171;28;20017;-81
2022/05/17 00:39:47;;;;;;;5.07;2.70;;;;;;;15.63;51.21;94177.38;5065200;28;20054;-81
2022/05/17 00:42:13;;;;;;;5.03;2.25;;;;;;;15.60;50.79;94178.06;5065281;28;20017;-82
2022/05/17 00:44:45;;;;;;;5.40;2.15;;;;;;;15.59;50.60;94174.59;5065381;28;20092;-82
2022/05/17 00:47:35;;;;;;;4.80;2.25;;;;;;;15.59;50.34;94176.50;5064973;28;20088;-82
2022/05/17 00:50:24;;;;;;;7.38;2.42;;;;;;;15.60;50.55;94180.75;5064939;28;20082;-82
2022/05/17 00:53:05;;;;;;;4.25;2.17;;;;;;;15.60;50.83;94180.75;5064881;28;20215;-82
2022/05/17 00:55:35;;;;;;;8.98;3.67;;;;;;;15.56;50.93;94174.50;5047190;28;20051;-82
2022/05/17 00:58:08;;;;;;;9.50;3.00;;;;;;;15.53;51.03;94181.34;5065051;28;20035;-82
2022/05/17 01:00:37;;;;;;;;;;;;;;;15.55;51.25;94175.59;5047663;28;20243;-83
2022/05/17 01:03:06;;;;;;;7.35;3.03;;;;;;;15.49;51.25;94169.69;5064850;28;19911;-82
2022/05/17 01:05:37;;;;;;;6.45;2.92;;;;;;;15.47;51.03;94168.44;5064626;28;20024;-82
2022/05/17 01:08:03;;;;;;;4.80;2.73;;;;;;;15.44;51.19;94170.69;5065337;28;20090;-82
2022/05/17 01:10:30;;;;;;;8.43;2.83;;;;;;;15.45;51.30;94168.78;5064460;28;20335;-82
2022/05/17 01:15:42;;;;;;;6.35;2.10;;;;;;;15.37;52.36;94165.09;5064548;28;20044;-81
2022/05/17 01:18:07;;;;;;;10.75;3.20;;;;;;;15.30;52.94;94164.06;5064599;28;20016;-82
2022/05/17 01:20:33;;;;;;;6.10;2.60;;;;;;;15.21;53.29;94162.28;5064477;28;20013;-82
2022/05/17 01:23:01;;;;;;;4.55;2.40;;;;;;;15.16;53.40;94153.66;5064472;28;20274;-82
2022/05/17 01:25:28;;;;;;;5.28;2.60;;;;;;;15.13;53.43;94154.34;5064461;28;20025;-82
2022/05/17 01:28:09;;;;;;;4.50;2.22;;;;;;;15.03;54.28;94156.31;5064318;28;20025;-82
2022/05/17 01:30:36;;;;;;;9.03;2.80;;;;;;;15.00;53.89;94148.16;5064454;28;20033;-82
2022/05/17 01:33:03;;;;;;;7.45;2.60;;;;;;;14.98;53.90;94151.19;5064543;28;20273;-82
2022/05/17 01:35:28;;;;;;;5.80;2.17;;;;;;;14.90;53.93;94154.75;5064618;28;20032;-81
2022/05/17 01:37:56;;;;;;;5.93;2.55;;;;;;;14.86;54.04;94159.22;5064454;28;20029;-81
2022/05/17 01:40:23;;;;;;;3.72;2.13;;;;;;;14.78;54.33;94149.38;5064243;28;20029;-82
2022/05/17 01:42:48;;;;;;;6.68;2.33;;;;;;;14.75;54.34;94150.78;5064222;28;20372;-81
2022/05/17 01:45:14;;;;;;;7.13;2.60;;;;;;;14.67;54.13;94148.22;5063978;28;20048;-81
2022/05/17 01:47:39;;;;;;;7.95;2.22;;;;;;;14.64;54.02;94155.81;5064115;28;20103;-81
2022/05/17 01:50:05;;;;;;;4.78;2.25;;;;;;;14.61;54.38;94159.16;5063916;28;20025;-81
2022/05/17 01:52:30;;;;;;;6.47;3.42;;;;;;;14.56;54.25;94153.22;5045923;28;20315;-82
2022/05/17 01:54:56;;;;;;;6.03;2.63;;;;;;;14.55;54.21;94152.41;5046424;28;20327;-82
2022/05/17 01:57:21;;;;;;;7.95;3.22;;;;;;;14.55;54.13;94163.13;5064163;28;20088;-82
2022/05/17 01:59:47;;;;;;;5.30;3.20;;;;;;;14.57;54.53;94166.31;5064227;28;20331;-81
2022/05/17 02:02:12;;;;;;;7.07;2.88;;;;;;;14.56;54.53;94170.09;5063884;28;20036;-81
2022/05/17 02:04:38;;;;;;;5.13;2.90;;;;;;;14.58;54.63;94162.50;5046049;28;20052;-81
2022/05/17 02:07:04;;;;;;;6.78;2.97;;;;;;;14.55;54.80;94165.81;5063556;28;20062;-81
2022/05/17 02:09:29;;;;;;;7.97;3.33;;;;;;;14.55;55.08;94167.69;5063334;28;20071;-81
2022/05/17 02:11:55;;;;;;;9.68;3.47;;;;;;;14.49;55.64;94159.09;5063413;28;20021;-80
2022/05/17 02:14:20;;;;;;;8.40;3.10;;;;;;;14.44;55.99;94167.31;5063679;28;20024;-82
2022/05/17 02:16:46;;;;;;;7.93;3.65;;;;;;;14.41;56.28;94158.06;5063823;28;20329;-80
2022/05/17 02:19:12;;;;;;;5.00;3.15;;;;;;;14.38;56.36;94165.97;5063482;28;20017;-82
2022/05/17 02:21:39;;;;;;;6.85;3.10;;;;;;;14.34;56.55;94173.09;5063769;28;20031;-81
2022/05/17 02:24:04;;;;;;;8.45;2.95;;;;;;;14.31;56.73;94163.00;5065697;28;20020;-82
2022/05/17 02:26:31;;;;;;;6.95;3.40;;;;;;;14.27;56.87;94164.78;5067813;28;20248;-82
2022/05/17 02:28:56;;;;;;;8.65;4.35;;;;;;;14.19;57.14;94164.53;5067607;28;20092;-83
2022/05/17 02:31:22;;;;;;;7.35;3.42;;;;;;;14.17;57.46;94168.66;5067619;28;20020;-83
2022/05/17 02:33:48;;;;;;;5.85;3.83;;;;;;;14.13;57.39;94173.91;5067861;28;20025;-82
2022/05/17 02:36:13;;;;;;;10.10;3.47;;;;;;;14.09;57.71;94167.63;5050140;28;20017;-83
2022/05/17 02:38:40;;;;;;;7.38;4.53;;;;;;;14.09;57.78;94167.63;5067760;28;20021;-83
2022/05/17 02:41:06;;;;;;;11.95;4.80;;;;;;;14.07;57.97;94169.06;5067656;28;20029;-82
2022/05/17 02:43:32;;;;;;;11.00;4.72;;;;;;;14.04;58.32;94170.47;5049640;28;20104;-82
2022/05/17 02:45:57;;;;;;;16.58;4.40;;;;;;;13.99;58.60;94165.34;5067374;28;20021;-82
2022/05/17 02:48:23;;;;;;;6.90;4.13;;;;;;;13.93;58.82;94162.06;5067399;28;20020;-82
2022/05/17 02:50:48;;;;;;;7.05;3.75;;;;;;;13.93;59.44;94163.97;5067529;28;20027;-82
2022/05/17 02:53:14;;;;;;;10.75;4.35;;;;;;;13.88;59.47;94158.78;5067051;28;20063;-82
2022/05/17 02:55:40;;;;;;;8.15;4.70;;;;;;;13.84;59.31;94164.81;5067318;28;20039;-82
2022/05/17 02:58:05;;;;;;;8.10;3.88;;;;;;;13.81;59.05;94160.09;5067318;28;20033;-81
2022/05/17 03:00:32;;;;;;;6.93;3.53;;;;;;;13.78;58.69;94158.06;5067027;28;20092;-82
2022/05/17 03:02:57;;;;;;;6.20;3.60;;;;;;;13.73;59.18;94152.88;5067285;28;20052;-81
2022/05/17 03:05:24;;;;;;;6.97;4.60;;;;;;;13.69;59.20;94169.94;5067308;28;20099;-81
2022/05/17 03:07:49;;;;;;;7.70;3.55;;;;;;;13.68;59.19;94163.81;5067186;28;20032;-82
2022/05/17 03:10:15;;;;;;;7.22;3.97;;;;;;;13.64;59.35;94173.59;5067043;28;20057;-82
2022/05/17 03:12:41;;;;;;;8.57;4.55;;;;;;;13.63;59.83;94166.66;5067565;28;20025;-82
2022/05/17 03:15:07;;;;;;;8.68;4.20;;;;;;;13.62;59.74;94173.13;5067019;28;20094;-82
2022/05/17 03:17:33;;;;;;;8.57;4.00;;;;;;;13.59;59.63;94171.09;5066911;28;20021;-82
2022/05/17 03:19:58;;;;;;;7.72;4.18;;;;;;;13.58;59.76;94172.22;5049127;28;20058;-82
2022/05/17 03:22:24;;;;;;;8.23;4.05;;;;;;;13.59;59.96;94171.88;5066801;28;20024;-82
2022/05/17 03:24:51;;;;;;;7.20;3.90;;;;;;;13.59;59.81;94165.75;5067107;28;20017;-81
2022/05/17 03:27:18;;;;;;;7.90;3.15;;;;;;;13.64;58.94;94171.69;5066836;28;20021;-82
2022/05/17 03:29:44;;;;;;;10.88;3.55;;;;;;;13.62;59.38;94173.13;5066930;28;20021;-82
2022/05/17 03:32:09;;;;;;;8.15;3.60;;;;;;;13.63;59.85;94177.38;5067257;28;20350;-82
2022/05/17 03:34:35;;;;;;;10.60;4.25;;;;;;;13.65;60.07;94181.28;5066482;28;20017;-82
2022/05/17 03:37:00;;;;;;;8.73;4.22;;;;;;;13.69;60.12;94173.41;5066535;28;20205;-82
2022/05/17 03:39:26;;;;;;;7.60;4.30;;;;;;;13.72;59.93;94166.59;5067247;28;20077;-81
2022/05/17 03:41:51;;;;;;;6.57;2.97;;;;;;;13.76;59.93;94173.69;5066914;28;20040;-82
2022/05/17 03:44:17;;;;;;;5.90;3.13;;;;;;;13.79;59.28;94183.72;5066999;28;20020;-82
2022/05/17 03:46:43;;;;;;;12.43;3.90;;;;;;;13.82;59.12;94185.78;5066696;28;20021;-82
2022/05/17 03:49:09;;;;;;;8.43;3.15;;;;;;;13.89;58.68;94179.91;5066718;28;20044;-82
2022/05/17 03:51:34;;;;;;;6.95;3.15;;;;;;;13.92;58.68;94178.44;5066752;28;20043;-82
2022/05/17 03:54:00;;;;;;;10.70;3.20;;;;;;;13.97;58.25;94176.38;5066643;28;20047;-82
2022/05/17 03:56:25;;;;;;;12.18;3.55;;;;;;;14.05;58.15;94183.56;5066236;28;20013;-81
2022/05/17 03:58:50;;;;;;;5.65;3.05;;;;;;;14.13;57.85;94195.34;5067637;28;20020;-82
2022/05/17 04:01:16;;;;;;;9.95;3.40;;;;;;;14.19;57.86;94188.66;5066346;28;20374;-83
2022/05/17 04:03:43;;;;;;;6.18;3.60;;;;;;;14.28;57.34;94187.81;5066454;28;20319;-82
2022/05/17 04:06:08;;;;;;;5.45;3.55;;;;;;;14.37;56.85;94183.16;5066223;28;20044;-83
2022/05/17 04:08:36;;;;;;;6.65;3.30;;;;;;;14.45;56.06;94191.13;5065719;28;20346;-82
2022/05/17 04:11:04;;;;;;;8.10;4.03;;;;;;;14.54;56.09;94182.22;5066037;28;20208;-82
2022/05/17 04:13:31;;;;;;;6.40;3.33;;;;;;;14.60;55.90;94175.56;5065948;28;20029;-82
2022/05/17 04:16:00;;;;;;;9.10;3.30;;;;;;;14.69;55.34;94180.84;5065025;28;20017;-81
2022/05/17 04:18:27;;;;;;;10.30;4.05;;;;;;;14.71;55.68;94171.34;5064735;28;20016;-82
2022/05/17 04:21:01;;;;;;;7.70;3.78;;;;;;;14.84;55.89;94181.00;5064903;28;20017;-82
2022/05/17 04:23:27;;;;;;;5.10;3.25;;;;;;;14.91;55.93;94175.09;5065026;28;20025;-82
2022/05/17 04:25:53;;;;;;;12.52;3.80;;;;;;;14.97;55.57;94176.44;5065062;28;20376;-82
2022/05/17 04:28:19;;;;;;;10.23;4.05;;;;;;;15.06;55.27;94187.09;5046971;28;20032;-81
2022/05/17 04:30:44;;;;;;;13.70;4.72;;;;;;;15.15;55.47;94192.38;5064107;28;20021;-82
2022/05/17 04:33:10;;;;;;;14.10;4.50;;;;;;;15.23;55.58;94196.84;5064429;28;20104;-82
2022/05/17 04:35:36;;;;;;;14.32;5.10;;;;;;;15.28;55.53;94193.94;5064371;28;20067;-82
2022/05/17 04:38:01;;;;;;;16.20;5.28;;;;;;;15.34;56.18;94197.19;5064548;28;20311;-82
2022/05/17 04:40:45;;;;;;;16.00;5.13;;;;;;;15.30;54.77;94201.66;5065410;28;20021;-81
2022/05/17 04:43:11;;;;;;;14.50;4.93;;;;;;;15.26;54.91;94196.19;5065114;28;20135;-82
2022/05/17 04:45:37;;;;;;;10.52;5.45;;;;;;;15.02;54.87;94197.72;5064210;28;20020;-82
2022/05/17 04:48:03;;;;;;;10.23;4.32;;;;;;;15.02;54.57;94202.28;5063865;28;20361;-83
2022/05/17 04:50:29;;;;;;;16.02;5.78;;;;;;;15.07;56.47;94204.00;5063974;28;20021;-83
2022/05/17 04:52:55;;;;;;;12.32;5.50;;;;;;;15.12;55.93;94206.44;5063958;28;20090;-83
2022/05/17 04:55:22;;;;;;;14.75;6.35;;;;;;;15.13;56.13;94198.06;5064210;28;20024;-83
2022/05/17 04:57:47;;;;;;;12.18;5.78;;;;;;;15.24;56.48;94193.84;5064402;28;20096;-82
2022/05/17 05:00:17;;;;;;;18.25;6.15;;;;;;;15.30;57.07;94194.41;5064229;28;20040;-83
2022/05/17 05:02:42;;;;;;;12.23;5.82;;;;;;;15.39;57.38;94191.63;5063853;28;20071;-84
2022/05/17 05:05:08;;;;;;;17.70;5.72;;;;;;;15.50;56.43;94190.03;5046046;28;20099;-84
2022/05/17 05:07:34;;;;;;;22.67;6.30;;;;;;;15.57;55.42;94195.66;5045830;28;20307;-69
2022/05/17 05:10:00;;;;;;;13.10;6.10;;;;;;;15.67;55.41;94199.78;5063287;28;20045;-68
2022/05/17 05:12:25;;;;;;;11.68;6.25;;;;;;;15.74;55.35;94189.28;5063343;28;20309;-69
2022/05/17 05:14:51;;;;;;;19.10;6.40;;;;;;;15.83;55.35;94186.47;5063129;28;20020;-68
2022/05/17 05:17:17;;;;;;;15.70;5.97;;;;;;;15.87;54.59;94187.38;5063325;28;20012;-69
2022/05/17 05:19:42;;;;;;;22.63;5.40;;;;;;;15.99;53.80;94197.31;5063228;28;20016;-69
2022/05/17 05:22:08;;;;;;;18.58;5.97;;;;;;;16.08;53.99;94186.44;5063310;28;20028;-69
2022/05/17 05:24:33;;;;;;;12.38;6.22;;;;;;;16.12;54.10;94187.31;5063039;28;20020;-68
2022/05/17 05:26:59;;;;;;;15.32;5.78;;;;;;;16.27;53.75;94193.91;5063017;28;20033;-69
2022/05/17 05:29:25;;;;;;;25.77;6.43;;;;;;;16.36;53.79;94183.78;5062740;28;20021;-68
2022/05/17 05:31:51;;;;;;;20.85;6.65;;;;;;;16.45;53.26;94181.75;5062947;28;20096;-68
2022/05/17 05:34:16;;;;;;;19.70;6.70;;;;;;;16.52;53.16;94189.22;5063123;28;20200;-69
2022/05/17 05:36:42;;;;;;;15.23;7.15;;;;;;;16.60;53.37;94191.75;5062605;28;20017;-70
2022/05/17 05:39:07;;;;;;;16.42;6.88;;;;;;;16.54;52.96;94185.06;5062985;28;20020;-71
2022/05/17 05:41:33;;;;;;;32.20;6.63;;;;;;;16.60;53.94;94196.38;5062796;28;20024;-70
2022/05/17 05:43:59;;;;;;;15.55;6.72;;;;;;;16.65;53.39;94202.28;5062704;28;20033;-69
2022/05/17 05:46:24;;;;;;;24.88;6.95;;;;;;;16.74;52.19;94206.75;5062842;28;20039;-81
2022/05/17 05:48:50;;;;;;;14.95;6.95;;;;;;;16.80;51.75;94206.16;5062865;28;20217;-80
2022/05/17 05:51:15;;;;;;;14.15;6.65;;;;;;;16.75;51.54;94197.53;5062793;28;20020;-86
2022/05/17 05:53:41;;;;;;;8.98;6.20;;;;;;;16.84;51.55;94193.59;5063086;28;20092;-84
2022/05/17 05:56:06;;;;;;;19.33;6.20;;;;;;;16.98;51.66;94195.09;5062453;28;20017;-83
2022/05/17 05:58:34;;;;;;;14.70;6.00;;;;;;;17.07;51.72;94203.03;5044539;28;20024;-86
2022/05/17 06:01:00;;;;;;;17.50;5.30;;;;;;;17.16;50.57;94190.19;5045138;28;20055;-86
2022/05/17 06:03:27;;;;;;;15.43;5.78;;;;;;;17.26;49.68;94197.75;5062983;28;20219;-86
2022/05/17 06:05:53;;;;;;;11.90;6.22;;;;;;;17.32;49.15;94199.06;5062757;28;20094;-85
2022/05/17 06:08:21;;;;;;;19.25;5.70;;;;;;;17.37;49.49;94198.78;5062956;28;20299;-83
2022/05/17 06:10:47;;;;;;;23.27;6.43;;;;;;;17.41;49.57;94180.78;5062551;28;20036;-82
2022/05/17 06:13:16;;;;;;;9.45;5.47;;;;;;;17.47;48.76;94194.03;5062385;28;20047;-84
2022/05/17 06:15:43;;;;;;;15.10;5.47;;;;;;;17.50;48.82;94194.09;5062700;28;20020;-83
2022/05/17 06:18:09;;;;;;;13.40;6.03;;;;;;;17.50;48.89;94194.09;5062534;28;20371;-83
2022/05/17 06:20:36;;;;;;;18.52;5.32;;;;;;;17.65;49.28;94193.31;5062440;28;20017;-86
2022/05/17 06:23:03;;;;;;;17.00;5.45;;;;;;;17.74;48.71;94189.63;5044986;28;20021;-86
2022/05/17 06:25:28;;;;;;;10.95;4.63;;;;;;;17.82;48.47;94202.16;5062652;28;20367;-87
2022/05/17 06:27:54;;;;;;;15.82;4.68;;;;;;;17.96;48.05;94197.09;5062737;28;20028;-87
2022/05/17 06:30:20;;;;;;;14.43;6.13;;;;;;;18.03;47.56;94196.47;5063736;28;20114;-78
2022/05/17 06:32:45;;;;;;;17.27;4.95;;;;;;;18.11;47.03;94197.41;5062386;28;20103;-78
2022/05/17 06:35:12;;;;;;;18.80;5.40;;;;;;;18.18;47.54;94197.59;5062550;28;20196;-84
2022/05/17 06:37:42;;;;;;;9.18;5.47;;;;;;;18.25;48.38;94198.50;5063082;28;20025;-88
2022/05/17 06:40:07;;;;;;;10.90;5.88;;;;;;;18.34;47.88;94192.91;5062946;28;20024;-82
2022/05/17 06:42:34;;;;;;;16.52;5.55;;;;;;;18.42;47.25;94191.94;5063691;28;20021;-83
2022/05/17 06:45:00;;;;;;;13.77;5.30;;;;;;;18.38;47.30;94190.31;5062429;28;20283;-83
2022/05/17 06:48:07;;;;;;;14.82;5.90;;;;;;;18.43;47.40;94190.00;5062745;28;20021;-82
2022/05/17 06:50:33;;;;;;;18.73;5.32;;;;;;;18.47;47.40;94179.28;5040044;28;20112;-80
2022/05/17 06:52:58;;;;;;;24.08;8.77;;;;;;;18.52;47.44;94182.50;5062581;28;20102;-80
2022/05/17 06:55:24;;;;;;;13.32;4.82;;;;;;;18.49;47.81;94177.78;5062825;28;20247;-80
2022/05/17 06:57:50;;;;;;;23.65;6.35;;;;;;;18.43;46.29;94174.59;5062412;28;20028;-81
2022/05/17 07:00:19;;;;;;;11.75;4.10;;;;;;;18.57;46.38;94184.13;5044578;28;20025;-73
2022/05/17 07:02:45;;;;;;;15.32;4.60;;;;;;;18.72;46.00;94190.56;5062281;28;20131;-82
2022/05/17 07:05:10;;;;;;;22.85;4.13;;;;;;;18.81;46.21;94174.97;5062621;28;20032;-80
2022/05/17 07:07:37;;;;;;;11.98;3.90;;;;;;;18.87;46.35;94181.66;5062298;28;20207;-80
2022/05/17 07:15:31;;;;;;;9.75;4.05;;;;;;;19.17;44.23;94183.72;5065988;28;20407;-81
2022/05/17 07:18:00;;;;;;;7.70;4.18;;;;;;;19.20;44.48;94177.59;5065854;28;20025;-83
2022/05/17 07:20:26;;;;;;;22.60;3.72;;;;;;;19.30;44.37;94173.53;5065864;28;20315;-82
2022/05/17 07:22:52;;;;;;;12.73;4.18;;;;;;;19.46;43.63;94174.19;5065662;28;20099;-82
2022/05/17 07:25:18;;;;;;;9.35;4.28;;;;;;;19.52;43.64;94167.31;5065130;28;20040;-81
2022/05/17 07:27:43;;;;;;;10.75;3.83;;;;;;;19.59;43.32;94169.34;5065729;28;20027;-82
2022/05/17 07:30:09;;;;;;;11.20;4.10;;;;;;;19.55;43.47;94168.50;5065866;28;20040;-81
2022/05/17 07:32:34;;;;;;;11.77;3.83;;;;;;;19.61;43.51;94161.66;5065964;28;20028;-81
2022/05/17 07:35:00;;;;;;;15.40;4.85;;;;;;;19.66;43.32;94164.03;5065987;28;20033;-86
2022/05/17 07:37:25;;;;;;;12.02;4.13;;;;;;;19.68;44.11;94164.44;5065995;28;20021;-85
2022/05/17 07:39:52;;;;;;;11.55;4.05;;;;;;;19.81;43.88;94167.78;5066479;28;20234;-86
2022/05/17 07:42:17;;;;;;;13.10;3.95;;;;;;;19.96;44.48;94168.75;5066444;28;20086;-84
2022/05/17 07:44:43;;;;;;;12.77;3.95;;;;;;;20.08;43.43;94163.13;5066233;28;20314;-85
2022/05/17 07:47:08;;;;;;;11.70;4.15;;;;;;;20.22;43.57;94154.44;5066624;28;20040;-86
2022/05/17 07:49:33;;;;;;;9.00;3.70;;;;;;;20.35;43.33;94152.25;5065712;28;20071;-86
2022/05/17 07:52:20;;;;;;;;;;;;;;;;;;;;;
2022/05/17 07:54:45;;;;;;;17.60;5.55;;;;;;;20.56;41.80;94146.34;5051018;28;20068;-82
2022/05/17 07:57:11;;;;;;;10.63;4.10;;;;;;;20.65;41.88;94146.84;5065342;28;20041;-80
2022/05/17 07:59:36;;;;;;;13.23;4.18;;;;;;;20.74;41.65;94149.25;5065271;28;20027;-82
2022/05/17 08:02:02;;;;;;;14.45;4.85;;;;;;;20.80;41.65;94139.66;5065719;28;20040;-84
2022/05/17 08:04:29;;;;;;;18.67;3.90;;;;;;;20.88;41.17;94141.28;5065454;28;20051;-83
2022/05/17 08:06:56;;;;;;;17.05;4.03;;;;;;;20.96;40.17;94142.91;5065125;28;20315;-81
2022/05/17 08:09:23;;;;;;;10.90;4.50;;;;;;;21.03;40.04;94150.34;5065406;28;20051;-82
2022/05/17 08:11:49;;;;;;;21.95;4.38;;;;;;;21.03;41.29;94148.41;5065564;28;20189;-83
2022/05/17 08:14:15;;;;;;;11.38;4.30;;;;;;;21.14;41.49;94139.59;5065638;28;20079;-81
2022/05/17 08:16:42;;;;;;;20.92;4.25;;;;;;;21.25;41.19;94145.91;5065419;28;20024;-87
2022/05/17 08:19:08;;;;;;;21.58;4.53;;;;;;;21.34;40.53;94146.38;5047600;28;20021;-81
2022/05/17 08:21:34;;;;;;;14.30;4.72;;;;;;;21.47;39.91;94143.41;5064509;28;20025;-83
2022/05/17 08:24:00;;;;;;;15.95;4.60;;;;;;;21.55;39.50;94136.88;5064819;28;20025;-80
2022/05/17 08:29:11;;;;;;;13.45;4.25;;;;;;;21.62;37.94;94126.09;5064702;28;20052;-79
2022/05/17 08:31:37;;;;;;;11.70;3.60;;;;;;;21.74;37.19;94128.50;5064491;28;20029;-80
2022/05/17 08:34:02;;;;;;;13.50;4.25;;;;;;;21.90;38.08;94135.56;5064297;28;20025;-79
2022/05/17 08:36:27;;;;;;;9.80;3.83;;;;;;;21.98;38.26;94129.03;5064313;28;20021;-78
2022/05/17 08:38:53;;;;;;;18.25;5.13;;;;;;;22.10;38.60;94125.22;5064119;28;20204;-79
2022/05/17 08:41:39;;;;;;;15.05;4.85;;;;;;;22.26;38.78;94127.66;5064354;28;20040;-78
2022/05/17 08:44:15;;;;;;;16.70;3.88;;;;;;;22.37;33.81;94125.78;5063834;28;20048;-78
2022/05/17 08:47:09;;;;;;;11.70;3.83;;;;;;;22.46;32.37;94117.28;5063929;28;20307;-79
2022/05/17 08:50:06;;;;;;;9.00;3.42;;;;;;;22.60;33.35;94126.25;5063751;28;20307;-80
2022/05/17 08:52:35;;;;;;;8.60;3.35;;;;;;;22.66;32.77;94121.22;5057709;28;20335;-80
2022/05/17 08:55:33;;;;;;;6.75;2.50;;;;;;;22.70;30.22;94113.84;5064472;28;20052;-80
2022/05/17 08:58:15;;;;;;;7.68;2.90;;;;;;;22.74;31.17;94111.16;5048104;28;20040;-81
2022/05/17 09:01:06;;;;;;;8.75;2.25;;;;;;;22.81;30.44;94111.16;5064338;28;20029;-81
2022/05/17 09:03:46;;;;;;;7.88;2.70;;;;;;;22.96;30.36;94106.50;5063964;28;20046;-79
2022/05/17 09:06:22;;;;;;;3.22;2.03;;;;;;;23.03;29.50;94104.63;5064291;28;20063;-80
2022/05/17 09:09:09;;;;;;;14.00;3.38;;;;;;;23.06;29.15;94107.72;5064100;28;20053;-79
2022/05/17 09:11:46;;;;;;;6.07;2.13;;;;;;;23.16;28.69;94106.97;5063846;28;20078;-80
2022/05/17 09:14:16;;;;;;;8.48;2.10;;;;;;;23.26;28.33;94103.47;5063911;28;20021;-80
2022/05/17 09:17:13;;;;;;;6.25;2.35;;;;;;;23.33;28.68;94098.06;5045892;28;20066;-80
2022/05/17 09:19:38;;;;;;;7.57;2.38;;;;;;;23.45;28.92;94107.75;5055902;28;20051;-80
2022/05/17 09:22:06;;;;;;;6.32;2.40;;;;;;;23.45;29.50;94102.31;5063703;28;20250;-80
2022/05/17 09:24:59;;;;;;;10.80;2.97;;;;;;;23.57;29.80;94099.22;5063480;28;20028;-79
2022/05/17 09:27:39;;;;;;;12.95;3.00;;;;;;;23.72;29.37;94096.47;5060242;28;20029;-77
2022/05/17 09:30:08;;;;;;;7.95;3.03;;;;;;;23.76;28.34;94089.09;5063655;28;20039;-78
2022/05/17 09:32:38;;;;;;;20.13;2.95;;;;;;;23.77;27.85;94101.53;5063180;28;20039;-79
2022/05/17 09:35:20;;;;;;;17.73;3.05;;;;;;;23.75;27.94;94096.47;5063033;28;20065;-78
2022/05/17 09:37:50;;;;;;;9.82;2.60;;;;;;;23.83;28.33;94089.88;5063075;28;20033;-79
2022/05/17 09:40:23;;;;;;;4.10;2.33;;;;;;;23.97;28.46;94083.59;5063267;28;20024;-78
2022/05/17 09:43:01;;;;;;;10.20;2.70;;;;;;;24.16;28.65;94078.88;5063032;28;20059;-77
2022/05/17 09:46:08;;;;;;;4.55;2.13;;;;;;;24.35;27.53;94072.22;5062806;28;20096;-77
2022/05/17 09:54:34;;;;;;;4.13;2.30;;;;;;;24.55;24.72;94067.09;5063762;28;20063;-78
2022/05/17 09:57:18;;;;;;;5.38;2.22;;;;;;;24.49;25.69;94063.97;5063690;28;20215;-78
2022/05/17 09:59:45;;;;;;;6.05;2.33;;;;;;;24.51;26.21;94067.09;5063464;28;20021;-78
2022/05/17 10:02:28;;;;;;;4.75;2.00;;;;;;;24.61;25.36;94055.38;5063447;28;20063;-80
2022/05/17 10:04:53;;;;;;;;;;;;;;;24.67;23.85;94057.66;5064058;28;20029;-80
2022/05/17 10:07:21;;;;;;;5.05;1.70;;;;;;;24.60;22.01;94064.69;5063801;28;20305;-80
2022/05/17 10:09:47;;;;;;;6.25;1.55;;;;;;;24.57;22.87;94059.28;5063527;28;20052;-81
2022/05/17 10:12:37;;;;;;;6.28;1.80;;;;;;;24.56;23.65;94063.19;5063189;28;20021;-81
2022/05/17 10:15:08;;;;;;;5.78;1.95;;;;;;;24.62;23.56;94050.69;5063147;28;20025;-81
2022/05/17 10:17:49;;;;;;;5.40;1.73;;;;;;;24.63;22.97;94047.56;5063037;28;20023;-81
2022/05/17 10:20:23;;;;;;;4.18;1.55;;;;;;;24.72;22.04;94038.19;5062957;28;20251;-81
2022/05/17 10:23:01;;;;;;;4.57;1.40;;;;;;;24.82;23.74;94042.78;5062755;28;20258;-81
2022/05/17 10:25:59;;;;;;;4.22;1.38;;;;;;;24.89;22.18;94042.72;5062735;28;20029;-79
2022/05/17 10:28:43;;;;;;;7.50;1.30;;;;;;;24.90;22.87;94029.88;5062662;28;20380;-80
2022/05/17 10:31:30;;;;;;;2.88;1.45;;;;;;;24.91;22.98;94037.63;5063089;28;20035;-79
2022/05/17 10:34:07;;;;;;;3.33;1.42;;;;;;;24.92;23.31;94025.56;5062952;28;20135;-79
2022/05/17 10:36:42;;;;;;;6.10;1.70;;;;;;;24.98;23.56;94017.75;5062438;28;20319;-80
2022/05/17 10:39:33;;;;;;;5.07;1.42;;;;;;;25.11;23.35;94018.03;5062589;28;20088;-79
2022/05/17 10:41:59;;;;;;;9.23;1.73;;;;;;;25.21;23.29;94009.78;5062405;28;20045;-79
2022/05/17 10:44:42;;;;;;;3.95;1.70;;;;;;;25.30;23.60;94001.16;5063309;28;20044;-79
2022/05/17 10:47:17;;;;;;;2.85;1.45;;;;;;;25.41;23.36;94015.44;5066582;28;20027;-81
2022/05/17 10:49:46;;;;;;;4.38;1.75;;;;;;;25.51;23.73;94007.59;5067126;28;20025;-80
2022/05/17 10:52:35;;;;;;;2.67;1.48;;;;;;;25.51;23.30;94010.31;5067009;28;20201;-81
2022/05/17 10:55:05;;;;;;;5.47;1.80;;;;;;;25.52;23.71;94007.16;5067129;28;20024;-80
2022/05/17 10:58:03;;;;;;;6.05;1.85;;;;;;;25.74;23.61;93996.78;5048798;28;20029;-81
2022/05/17 11:00:37;;;;;;;10.18;2.00;;;;;;;25.81;23.25;93988.53;5066055;28;20046;-82
2022/05/17 11:03:18;;;;;;;4.03;1.65;;;;;;;25.91;23.05;93989.63;5066035;28;20047;-79
2022/05/17 11:06:24;;;;;;;10.70;2.10;;;;;;;25.98;23.07;93986.03;5065830;28;20029;-81
2022/05/17 11:09:19;;;;;;;9.52;1.40;;;;;;;26.12;23.64;93983.13;5065971;28;20307;-82
2022/05/17 11:11:53;;;;;;;6.45;2.25;;;;;;;26.29;24.61;93986.03;5065990;28;20024;-81
2022/05/17 11:14:24;;;;;;;4.85;1.55;;;;;;;26.35;23.45;93968.75;5065947;28;20029;-82
2022/05/17 11:16:58;;;;;;;5.95;1.73;;;;;;;26.50;24.03;93972.09;5065868;28;20031;-79
2022/05/17 11:19:44;;;;;;;9.07;1.95;;;;;;;26.55;23.93;93976.31;5065872;28;20021;-80
2022/05/17 11:22:35;;;;;;;5.13;1.50;;;;;;;26.54;23.39;93964.63;5047528;28;20028;-79
2022/05/17 11:25:19;;;;;;;4.88;1.60;;;;;;;26.50;24.14;93952.16;5047682;28;20338;-79
2022/05/17 11:28:22;;;;;;;5.13;1.80;;;;;;;26.78;25.01;93951.00;5047737;28;20028;-78
2022/05/17 11:30:51;;;;;;;5.82;2.17;;;;;;;26.97;23.96;93952.28;5065358;28;20033;-79
2022/05/17 11:33:22;;;;;;;7.32;2.05;;;;;;;27.04;23.32;93952.13;5065322;28;20314;-78
2022/05/17 11:35:54;;;;;;;4.47;2.10;;;;;;;27.01;23.39;93952.97;5065606;28;20068;-77
2022/05/17 11:38:47;;;;;;;4.03;1.50;;;;;;;27.12;23.37;93942.63;5065594;28;20064;-82
2022/05/17 11:41:23;;;;;;;6.97;1.70;;;;;;;27.31;22.92;93943.88;5065369;28;20032;-80
2022/05/17 11:43:54;;;;;;;3.83;1.48;;;;;;;27.46;22.36;93938.13;5065205;28;20037;-79
2022/05/17 11:46:45;;;;;;;6.63;1.50;;;;;;;27.60;21.83;93929.69;5065000;28;20039;-81
2022/05/17 11:49:13;;;;;;;6.18;1.52;;;;;;;27.51;22.25;93927.47;5054121;28;20040;-88
2022/05/17 11:51:59;;;;;;;5.95;2.25;;;;;;;27.63;22.25;93928.81;5048691;28;20040;-90
2022/05/17 11:54:42;;;;;;;9.93;2.00;;;;;;;27.96;21.69;93920.75;5052427;28;20112;-83
2022/05/17 11:57:23;;;;;;;14.98;2.55;;;;;;;28.11;22.48;93926.72;5049113;28;20027;-89
2022/05/17 12:00:16;;;;;;;;;;;;;;;;;;;;;
2022/05/17 12:02:58;;;;;;;5.05;2.28;;;;;;;28.71;21.22;93910.13;5061434;28;20147;-82
2022/05/17 12:05:38;;;;;;;3.77;1.67;;;;;;;29.15;21.40;93913.41;5065427;28;20033;-84